createdAt,value
2019-02-24T00:00:58.195Z,1.60
2019-02-24T00:03:26.471Z,1.61
2019-02-24T00:05:54.760Z,1.60
2019-02-24T00:08:23.019Z,1.52
2019-02-24T00:10:51.309Z,1.45
2019-02-24T00:13:19.581Z,1.41
2019-02-24T00:15:47.875Z,1.44
2019-02-24T00:18:16.147Z,1.47
2019-02-24T00:20:44.428Z,1.44
2019-02-24T00:23:12.705Z,1.46
2019-02-24T00:25:40.990Z,1.37
2019-02-24T00:28:09.267Z,1.33
2019-02-24T00:30:37.539Z,1.30
2019-02-24T00:33:05.828Z,1.30
2019-02-24T00:35:34.113Z,1.13
2019-02-24T00:38:02.392Z,1.13
2019-02-24T00:40:30.676Z,1.18
2019-02-24T00:42:58.969Z,1.20
2019-02-24T00:45:27.237Z,1.08
2019-02-24T00:47:55.510Z,1.00
2019-02-24T00:50:23.793Z,0.99
2019-02-24T00:52:52.253Z,1.03
2019-02-24T00:55:20.520Z,0.99
2019-02-24T00:57:48.794Z,0.95
2019-02-24T01:00:17.131Z,0.83
2019-02-24T01:02:45.412Z,0.60
2019-02-24T01:05:13.702Z,0.61
2019-02-24T01:07:41.970Z,0.66
2019-02-24T01:10:10.328Z,0.62
2019-02-24T01:12:38.590Z,0.56
2019-02-24T01:15:09.413Z,0.45
2019-02-24T01:17:37.680Z,0.50
2019-02-24T01:20:08.504Z,0.43
2019-02-24T01:22:36.771Z,0.39
2019-02-24T01:25:05.316Z,0.37
2019-02-24T01:27:33.621Z,0.33
2019-02-24T01:30:01.938Z,0.32
2019-02-24T01:32:30.206Z,0.27
2019-02-24T01:34:58.509Z,0.20
2019-02-24T01:37:26.789Z,0.12
2019-02-24T01:39:55.062Z,0.09
2019-02-24T01:42:23.348Z,0.12
2019-02-24T01:44:51.639Z,0.10
2019-02-24T01:47:19.993Z,0.11
2019-02-24T01:49:48.285Z,0.15
2019-02-24T01:52:16.584Z,0.15
2019-02-24T01:54:44.875Z,0.11
2019-02-24T01:57:13.160Z,0.10
2019-02-24T01:59:41.429Z,0.17
2019-02-24T02:02:09.706Z,0.19
2019-02-24T02:04:37.975Z,0.09
2019-02-24T02:07:06.268Z,-0.04
2019-02-24T02:09:34.569Z,-0.12
2019-02-24T02:12:02.858Z,-0.09
2019-02-24T02:14:31.146Z,-0.11
2019-02-24T02:16:59.442Z,-0.14
2019-02-24T02:19:27.756Z,-0.13
2019-02-24T02:21:56.048Z,-0.18
2019-02-24T02:24:24.330Z,-0.21
2019-02-24T02:26:52.651Z,-0.17
2019-02-24T02:29:20.922Z,-0.11
2019-02-24T02:31:49.210Z,-0.09
2019-02-24T02:34:17.471Z,-0.14
2019-02-24T02:36:45.761Z,-0.10
2019-02-24T02:39:14.071Z,-0.09
2019-02-24T02:41:42.330Z,-0.18
2019-02-24T02:44:10.611Z,-0.13
2019-02-24T02:46:38.913Z,-0.18
2019-02-24T02:49:07.173Z,-0.22
2019-02-24T02:51:35.503Z,-0.27
2019-02-24T02:54:03.775Z,-0.27
2019-02-24T02:56:32.059Z,-0.23
2019-02-24T02:59:00.366Z,-0.29
2019-02-24T03:01:28.646Z,-0.36
2019-02-24T03:03:56.937Z,-0.32
2019-02-24T03:06:26.851Z,-0.36
2019-02-24T03:08:55.127Z,-0.43
2019-02-24T03:11:23.432Z,-0.45
2019-02-24T03:13:51.757Z,-0.45
2019-02-24T03:16:23.072Z,-0.45
2019-02-24T03:18:51.505Z,-0.46
2019-02-24T03:21:19.782Z,-0.36
2019-02-24T03:23:48.067Z,-0.36
2019-02-24T03:26:16.345Z,-0.36
2019-02-24T03:28:44.636Z,-0.34
2019-02-24T03:31:12.935Z,-0.38
2019-02-24T03:33:44.645Z,-0.46
2019-02-24T03:36:11.351Z,-0.52
2019-02-24T03:38:39.629Z,-0.51
2019-02-24T03:41:07.918Z,-0.48
2019-02-24T03:43:36.190Z,-0.47
2019-02-24T03:46:04.496Z,-0.47
2019-02-24T03:48:32.787Z,-0.49
2019-02-24T03:51:01.093Z,-0.49
2019-02-24T03:53:29.364Z,-0.46
2019-02-24T03:55:57.748Z,-0.44
2019-02-24T03:58:26.020Z,-0.43
2019-02-24T04:00:54.293Z,-0.43
2019-02-24T04:03:22.584Z,-0.45
2019-02-24T04:05:50.844Z,-0.50
2019-02-24T04:08:19.141Z,-0.52
2019-02-24T04:10:47.434Z,-0.46
2019-02-24T04:13:15.712Z,-0.45
2019-02-24T04:15:44.014Z,-0.37
2019-02-24T04:18:12.310Z,-0.40
2019-02-24T04:20:40.605Z,-0.41
2019-02-24T04:23:08.874Z,-0.41
2019-02-24T04:25:37.155Z,-0.38
2019-02-24T04:28:05.438Z,-0.30
2019-02-24T04:30:33.721Z,-0.44
2019-02-24T04:33:01.999Z,-0.56
2019-02-24T04:35:30.299Z,-0.53
2019-02-24T04:37:58.593Z,-0.56
2019-02-24T04:40:26.885Z,-0.62
2019-02-24T04:42:55.175Z,-0.64
2019-02-24T04:45:23.476Z,-0.56
2019-02-24T04:47:51.754Z,-0.54
2019-02-24T04:50:20.059Z,-0.53
2019-02-24T04:52:48.357Z,-0.46
2019-02-24T04:55:16.621Z,-0.44
2019-02-24T04:57:45.000Z,-0.44
2019-02-24T05:00:13.326Z,-0.45
2019-02-24T05:02:41.582Z,-0.39
2019-02-24T05:05:09.882Z,-0.36
2019-02-24T05:07:38.179Z,-0.31
2019-02-24T05:10:06.722Z,-0.38
2019-02-24T05:12:35.013Z,-0.48
2019-02-24T05:15:03.564Z,-0.46
2019-02-24T05:17:31.835Z,-0.43
2019-02-24T05:20:00.195Z,-0.32
2019-02-24T05:22:28.579Z,-0.29
2019-02-24T05:24:56.870Z,-0.31
2019-02-24T05:27:25.171Z,-0.37
2019-02-24T05:29:53.619Z,-0.24
2019-02-24T05:32:21.915Z,-0.21
2019-02-24T05:34:50.206Z,-0.25
2019-02-24T05:37:18.474Z,-0.31
2019-02-24T05:39:46.781Z,-0.40
2019-02-24T05:42:15.086Z,-0.44
2019-02-24T05:44:43.393Z,-0.36
2019-02-24T05:47:11.701Z,-0.28
2019-02-24T05:49:40.002Z,-0.23
2019-02-24T05:52:08.309Z,-0.17
2019-02-24T05:54:36.576Z,-0.22
2019-02-24T05:57:04.872Z,-0.23
2019-02-24T05:59:33.163Z,-0.24
2019-02-24T06:02:01.448Z,-0.24
2019-02-24T06:04:29.729Z,-0.36
2019-02-24T06:06:58.030Z,-0.31
2019-02-24T06:09:26.355Z,-0.26
2019-02-24T06:11:54.647Z,-0.33
2019-02-24T06:14:22.930Z,-0.25
2019-02-24T06:16:51.229Z,-0.19
2019-02-24T06:19:19.548Z,-0.20
2019-02-24T06:21:47.823Z,-0.25
2019-02-24T06:24:16.096Z,-0.19
2019-02-24T06:26:44.376Z,-0.33
2019-02-24T06:29:12.661Z,-0.33
2019-02-24T06:31:40.955Z,-0.27
2019-02-24T06:34:09.224Z,-0.24
2019-02-24T06:36:37.496Z,-0.22
2019-02-24T06:39:07.502Z,-0.19
2019-02-24T06:41:35.789Z,-0.25
2019-02-24T06:44:04.075Z,-0.28
2019-02-24T06:46:32.348Z,-0.29
2019-02-24T06:49:00.640Z,-0.29
2019-02-24T06:51:28.991Z,-0.30
2019-02-24T06:53:57.263Z,-0.29
2019-02-24T06:56:25.558Z,-0.17
2019-02-24T06:58:53.857Z,-0.12
2019-02-24T07:01:22.154Z,-0.08
2019-02-24T07:03:50.431Z,-0.01
2019-02-24T07:06:18.722Z,0.10
2019-02-24T07:08:48.176Z,0.07
2019-02-24T07:11:16.480Z,0.20
2019-02-24T07:13:44.770Z,0.29
2019-02-24T07:16:13.042Z,0.31
2019-02-24T07:18:41.333Z,0.26
2019-02-24T07:21:09.858Z,0.19
2019-02-24T07:23:38.843Z,0.26
2019-02-24T07:26:07.931Z,0.36
2019-02-24T07:28:36.205Z,0.41
2019-02-24T07:31:04.481Z,0.57
2019-02-24T07:33:32.760Z,0.68
2019-02-24T07:36:01.023Z,0.79
2019-02-24T07:38:29.331Z,0.85
2019-02-24T07:40:57.605Z,1.02
2019-02-24T07:43:25.875Z,1.17
2019-02-24T07:45:54.161Z,1.23
2019-02-24T07:48:22.455Z,1.20
2019-02-24T07:50:50.725Z,1.24
2019-02-24T07:53:19.006Z,1.40
2019-02-24T07:55:47.277Z,1.49
2019-02-24T07:58:15.569Z,1.53
2019-02-24T08:00:43.843Z,1.71
2019-02-24T08:03:12.119Z,1.76
2019-02-24T08:05:40.398Z,1.92
2019-02-24T08:08:16.277Z,2.01
2019-02-24T08:10:38.669Z,2.13
2019-02-24T08:13:06.955Z,2.38
2019-02-24T08:15:35.229Z,2.39
2019-02-24T08:18:03.510Z,2.43
2019-02-24T08:20:33.401Z,2.53
2019-02-24T08:23:01.743Z,2.70
2019-02-24T08:25:30.026Z,2.77
2019-02-24T08:27:58.300Z,2.89
2019-02-24T08:30:26.572Z,3.01
2019-02-24T08:32:54.844Z,3.16
2019-02-24T08:35:23.146Z,3.23
2019-02-24T08:37:51.473Z,3.38
2019-02-24T08:40:19.768Z,3.57
2019-02-24T08:42:48.027Z,3.77
2019-02-24T08:45:16.300Z,3.90
2019-02-24T08:47:44.580Z,3.90
2019-02-24T08:50:12.860Z,3.97
2019-02-24T08:52:41.122Z,4.15
2019-02-24T08:55:09.426Z,4.24
2019-02-24T08:57:37.686Z,4.44
2019-02-24T09:00:09.140Z,4.58
2019-02-24T09:02:37.428Z,4.69
2019-02-24T09:05:06.417Z,4.78
2019-02-24T09:07:35.370Z,4.91
2019-02-24T09:10:03.907Z,5.07
2019-02-24T09:12:32.212Z,5.22
2019-02-24T09:15:00.487Z,5.42
2019-02-24T09:17:28.759Z,5.56
2019-02-24T09:19:57.044Z,5.77
2019-02-24T09:22:25.329Z,5.94
2019-02-24T09:24:53.617Z,6.09
2019-02-24T09:27:21.895Z,6.32
2019-02-24T09:29:50.199Z,6.52
2019-02-24T09:32:18.475Z,6.55
2019-02-24T09:34:46.746Z,6.67
2019-02-24T09:37:15.036Z,6.96
2019-02-24T09:39:43.337Z,7.23
2019-02-24T09:42:11.595Z,7.13
2019-02-24T09:44:39.871Z,7.13
2019-02-24T09:47:08.153Z,7.21
2019-02-24T09:49:36.448Z,7.51
2019-02-24T09:52:04.719Z,7.79
2019-02-24T09:54:33.008Z,7.77
2019-02-24T09:57:01.283Z,7.98
2019-02-24T09:59:29.588Z,7.96
2019-02-24T10:01:57.875Z,8.16
2019-02-24T10:04:26.137Z,8.18
2019-02-24T10:06:54.446Z,8.35
2019-02-24T10:09:22.723Z,8.60
2019-02-24T10:11:51.005Z,8.68
2019-02-24T10:14:19.273Z,8.80
2019-02-24T10:16:47.555Z,8.86
2019-02-24T10:19:15.828Z,9.02
2019-02-24T10:21:44.112Z,9.19
2019-02-24T10:24:12.379Z,9.14
2019-02-24T10:26:40.659Z,9.26
2019-02-24T10:29:08.928Z,9.02
2019-02-24T10:31:37.229Z,9.15
2019-02-24T10:34:07.507Z,9.17
2019-02-24T10:36:35.525Z,9.27
2019-02-24T10:39:04.154Z,9.36
2019-02-24T10:41:32.430Z,9.39
2019-02-24T10:44:00.691Z,9.00
2019-02-24T10:46:28.964Z,9.30
2019-02-24T10:49:03.438Z,9.57
2019-02-24T10:51:27.233Z,9.70
2019-02-24T10:53:55.514Z,9.81
2019-02-24T10:56:23.781Z,9.70
2019-02-24T10:58:52.059Z,9.83
2019-02-24T11:01:29.033Z,9.68
2019-02-24T11:03:50.363Z,9.70
2019-02-24T11:06:18.646Z,9.93
2019-02-24T11:08:46.937Z,9.93
2019-02-24T11:11:15.207Z,9.90
2019-02-24T11:13:43.488Z,9.91
2019-02-24T11:16:11.759Z,10.14
2019-02-24T11:18:40.049Z,10.40
2019-02-24T11:21:08.315Z,10.59
2019-02-24T11:23:36.594Z,10.43
2019-02-24T11:26:04.866Z,10.47
2019-02-24T11:28:33.148Z,10.77
2019-02-24T11:31:01.430Z,11.05
2019-02-24T11:33:29.717Z,11.00
2019-02-24T11:35:57.993Z,11.23
2019-02-24T11:38:26.293Z,11.45
2019-02-24T11:40:54.570Z,11.22
2019-02-24T11:43:22.849Z,11.40
2019-02-24T11:45:51.135Z,11.38
2019-02-24T11:48:19.427Z,11.50
2019-02-24T11:50:47.710Z,11.38
2019-02-24T11:53:15.990Z,11.33
2019-02-24T11:55:44.279Z,11.41
2019-02-24T11:58:12.571Z,11.59
2019-02-24T12:00:40.854Z,11.69
2019-02-24T12:03:09.128Z,11.82
2019-02-24T12:05:37.423Z,11.81
2019-02-24T12:08:05.698Z,11.95
2019-02-24T12:10:33.989Z,12.15
2019-02-24T12:13:02.283Z,12.25
2019-02-24T12:15:30.561Z,12.24
2019-02-24T12:17:58.834Z,12.09
2019-02-24T12:20:27.103Z,12.37
2019-02-24T12:22:55.374Z,12.36
2019-02-24T12:25:23.657Z,12.59
2019-02-24T12:27:51.941Z,12.53
2019-02-24T12:30:20.225Z,12.54
2019-02-24T12:32:48.528Z,12.65
2019-02-24T12:35:16.796Z,12.78
2019-02-24T12:37:45.091Z,12.76
2019-02-24T12:40:14.320Z,12.94
2019-02-24T12:42:42.608Z,12.86
2019-02-24T12:45:11.524Z,12.95
2019-02-24T12:47:39.805Z,12.98
2019-02-24T12:50:11.197Z,13.09
2019-02-24T12:52:39.494Z,13.26
2019-02-24T12:55:08.820Z,13.42
2019-02-24T12:57:37.093Z,13.38
2019-02-24T13:00:13.291Z,13.33
2019-02-24T13:02:41.584Z,13.37
2019-02-24T13:05:09.916Z,13.41
2019-02-24T13:07:38.217Z,13.42
2019-02-24T13:10:09.594Z,13.48
2019-02-24T13:12:37.873Z,13.48
2019-02-24T13:15:06.297Z,13.68
2019-02-24T13:17:34.576Z,13.67
2019-02-24T13:20:02.853Z,13.66
2019-02-24T13:22:31.134Z,13.65
2019-02-24T13:24:59.421Z,13.73
2019-02-24T13:27:27.693Z,13.74
2019-02-24T13:29:55.968Z,13.79
2019-02-24T13:32:24.246Z,13.78
2019-02-24T13:34:52.571Z,13.84
2019-02-24T13:37:20.866Z,13.68
2019-02-24T13:39:49.139Z,13.57
2019-02-24T13:42:17.416Z,13.66
2019-02-24T13:44:45.716Z,13.74
2019-02-24T13:47:14.013Z,13.91
2019-02-24T13:49:43.034Z,13.96
2019-02-24T13:52:11.361Z,14.07
2019-02-24T13:54:39.637Z,14.18
2019-02-24T13:57:07.924Z,14.05
2019-02-24T13:59:36.197Z,13.82
2019-02-24T14:02:04.490Z,13.82
2019-02-24T14:04:32.787Z,13.78
2019-02-24T14:07:01.056Z,13.70
2019-02-24T14:09:29.347Z,13.78
2019-02-24T14:11:57.619Z,13.82
2019-02-24T14:14:25.918Z,13.92
2019-02-24T14:16:54.357Z,13.79
2019-02-24T14:19:22.644Z,13.76
2019-02-24T14:21:50.926Z,13.70
2019-02-24T14:24:20.037Z,13.70
2019-02-24T14:26:48.370Z,13.70
2019-02-24T14:29:17.260Z,13.69
2019-02-24T14:31:45.542Z,13.76
2019-02-24T14:34:13.825Z,13.86
2019-02-24T14:36:42.103Z,13.90
2019-02-24T14:39:10.466Z,13.79
2019-02-24T14:41:38.750Z,13.69
2019-02-24T14:44:07.034Z,13.68
2019-02-24T14:46:35.749Z,13.74
2019-02-24T14:49:04.039Z,13.76
2019-02-24T14:51:32.300Z,13.77
2019-02-24T14:54:00.581Z,13.86
2019-02-24T14:56:28.877Z,13.76
2019-02-24T14:58:57.148Z,13.79
2019-02-24T15:01:25.428Z,13.61
2019-02-24T15:03:53.709Z,13.64
2019-02-24T15:06:21.983Z,13.63
2019-02-24T15:08:50.259Z,13.64
2019-02-24T15:11:18.538Z,13.64
2019-02-24T15:13:46.819Z,13.40
2019-02-24T15:16:15.109Z,13.39
2019-02-24T15:18:43.405Z,13.14
2019-02-24T15:21:11.738Z,13.30
2019-02-24T15:23:40.036Z,13.16
2019-02-24T15:26:08.306Z,13.00
2019-02-24T15:28:36.566Z,12.91
2019-02-24T15:31:04.842Z,12.87
2019-02-24T15:33:33.136Z,12.95
2019-02-24T15:36:01.429Z,12.98
2019-02-24T15:38:29.731Z,12.86
2019-02-24T15:40:57.995Z,12.83
2019-02-24T15:43:26.286Z,12.73
2019-02-24T15:45:54.557Z,12.80
2019-02-24T15:48:22.839Z,12.75
2019-02-24T15:50:51.113Z,12.65
2019-02-24T15:53:19.427Z,12.71
2019-02-24T15:55:47.714Z,12.68
2019-02-24T15:58:17.828Z,12.60
2019-02-24T16:00:46.029Z,12.46
2019-02-24T16:03:14.333Z,12.32
2019-02-24T16:05:42.599Z,12.31
2019-02-24T16:08:10.915Z,12.31
2019-02-24T16:10:41.237Z,12.10
2019-02-24T16:13:16.741Z,12.16
2019-02-24T16:15:39.496Z,12.18
2019-02-24T16:18:07.774Z,12.21
2019-02-24T16:20:37.294Z,12.10
2019-02-24T16:23:05.563Z,11.87
2019-02-24T16:25:33.830Z,11.76
2019-02-24T16:28:02.110Z,11.68
2019-02-24T16:30:30.389Z,11.57
2019-02-24T16:32:58.663Z,11.35
2019-02-24T16:35:26.935Z,11.25
2019-02-24T16:37:55.209Z,11.14
2019-02-24T16:40:27.816Z,10.92
2019-02-24T16:42:56.089Z,10.79
2019-02-24T16:45:24.371Z,10.69
2019-02-24T16:47:52.652Z,10.66
2019-02-24T16:50:24.442Z,10.68
2019-02-24T16:52:52.786Z,10.63
2019-02-24T16:55:21.082Z,10.62
2019-02-24T16:57:49.355Z,10.54
2019-02-24T17:00:24.433Z,10.51
2019-02-24T17:02:52.713Z,10.38
2019-02-24T17:05:21.012Z,10.32
2019-02-24T17:07:49.442Z,10.30
2019-02-24T17:10:19.268Z,10.18
2019-02-24T17:12:47.624Z,10.13
2019-02-24T17:15:15.908Z,9.96
2019-02-24T17:17:44.260Z,9.70
2019-02-24T17:20:29.686Z,9.48
2019-02-24T17:22:57.952Z,9.28
2019-02-24T17:25:26.225Z,9.13
2019-02-24T17:27:54.489Z,8.88
2019-02-24T17:30:23.853Z,8.69
2019-02-24T17:32:52.316Z,8.73
2019-02-24T17:35:20.591Z,8.68
2019-02-24T17:37:48.851Z,8.59
2019-02-24T17:40:20.953Z,8.52
2019-02-24T17:42:49.236Z,8.41
2019-02-24T17:45:17.574Z,8.35
2019-02-24T17:47:45.863Z,8.31
2019-02-24T17:50:17.879Z,8.30
2019-02-24T17:52:46.114Z,8.05
2019-02-24T17:55:19.112Z,7.71
2019-02-24T17:57:47.398Z,7.43
2019-02-24T18:00:28.822Z,7.23
2019-02-24T18:02:57.463Z,7.48
2019-02-24T18:05:25.745Z,7.40
2019-02-24T18:07:54.063Z,7.27
2019-02-24T18:10:22.342Z,6.99
2019-02-24T18:12:50.619Z,6.79
2019-02-24T18:15:18.893Z,6.45
2019-02-24T18:17:47.155Z,6.41
2019-02-24T18:20:17.185Z,6.60
2019-02-24T18:22:45.459Z,6.54
2019-02-24T18:25:13.739Z,6.33
2019-02-24T18:27:42.010Z,6.34
2019-02-24T18:30:21.828Z,6.45
2019-02-24T18:32:50.093Z,6.50
2019-02-24T18:35:18.391Z,6.31
2019-02-24T18:37:46.671Z,6.09
2019-02-24T18:40:15.679Z,6.00
2019-02-24T18:42:43.968Z,6.05
2019-02-24T18:45:14.362Z,5.94
2019-02-24T18:47:42.633Z,5.90
2019-02-24T18:50:15.583Z,5.72
2019-02-24T18:52:43.840Z,5.57
2019-02-24T18:55:12.660Z,5.51
2019-02-24T18:57:40.940Z,5.70
2019-02-24T19:00:19.558Z,5.76
2019-02-24T19:02:47.848Z,5.49
2019-02-24T19:05:16.114Z,5.30
2019-02-24T19:07:44.467Z,5.32
2019-02-24T19:10:21.405Z,5.34
2019-02-24T19:12:49.764Z,5.25
2019-02-24T19:15:20.438Z,5.13
2019-02-24T19:17:48.702Z,5.03
2019-02-24T19:20:18.613Z,5.04
2019-02-24T19:22:46.899Z,5.01
2019-02-24T19:25:15.180Z,5.04
2019-02-24T19:27:43.481Z,5.02
2019-02-24T19:30:14.934Z,4.89
2019-02-24T19:32:43.197Z,4.92
2019-02-24T19:35:12.917Z,4.99
2019-02-24T19:37:41.181Z,5.08
2019-02-24T19:40:14.969Z,5.18
2019-02-24T19:42:43.241Z,5.18
2019-02-24T19:45:14.246Z,5.20
2019-02-24T19:47:42.526Z,5.23
2019-02-24T19:50:13.342Z,5.12
2019-02-24T19:52:41.622Z,5.02
2019-02-24T19:55:11.426Z,4.95
2019-02-24T19:57:39.715Z,4.86
2019-02-24T20:00:16.763Z,4.71
2019-02-24T20:02:45.036Z,4.60
2019-02-24T20:05:13.314Z,4.58
2019-02-24T20:07:41.600Z,4.60
2019-02-24T20:10:15.619Z,4.61
2019-02-24T20:12:44.067Z,4.44
2019-02-24T20:15:14.373Z,4.40
2019-02-24T20:17:42.668Z,4.41
2019-02-24T20:20:13.752Z,4.37
2019-02-24T20:22:42.031Z,4.32
2019-02-24T20:25:12.541Z,4.20
2019-02-24T20:27:40.827Z,4.16
2019-02-24T20:30:23.350Z,4.16
2019-02-24T20:32:51.626Z,4.15
2019-02-24T20:35:19.887Z,4.05
2019-02-24T20:37:48.181Z,4.00
2019-02-24T20:40:16.490Z,3.79
2019-02-24T20:42:44.747Z,3.62
2019-02-24T20:45:16.120Z,3.81
2019-02-24T20:47:44.416Z,3.81
2019-02-24T20:50:15.996Z,3.88
2019-02-24T20:52:44.268Z,3.86
2019-02-24T20:55:12.597Z,3.69
2019-02-24T20:57:40.875Z,3.66
2019-02-24T21:00:27.274Z,3.68
2019-02-24T21:02:55.553Z,3.58
2019-02-24T21:05:23.849Z,3.49
2019-02-24T21:07:52.133Z,3.27
2019-02-24T21:10:20.418Z,3.28
2019-02-24T21:12:48.697Z,3.36
2019-02-24T21:15:17.808Z,3.27
2019-02-24T21:17:46.087Z,3.26
2019-02-24T21:20:31.141Z,3.29
2019-02-24T21:22:59.408Z,3.25
2019-02-24T21:25:27.696Z,3.20
2019-02-24T21:27:55.962Z,3.06
2019-02-24T21:30:24.227Z,3.08
2019-02-24T21:32:52.518Z,3.11
2019-02-24T21:35:20.782Z,3.12
2019-02-24T21:37:49.057Z,3.13
2019-02-24T21:40:20.906Z,3.07
2019-02-24T21:42:49.190Z,2.99
2019-02-24T21:45:25.635Z,2.94
2019-02-24T21:47:53.919Z,2.87
2019-02-24T21:50:22.256Z,2.84
2019-02-24T21:52:50.537Z,2.79
2019-02-24T21:55:18.883Z,2.67
2019-02-24T21:57:47.150Z,2.59
2019-02-24T22:00:17.964Z,2.56
2019-02-24T22:02:46.257Z,2.62
2019-02-24T22:05:14.591Z,2.62
2019-02-24T22:07:42.854Z,2.70
2019-02-24T22:10:12.667Z,2.76
2019-02-24T22:12:40.953Z,2.79
2019-02-24T22:15:11.970Z,2.88
2019-02-24T22:17:40.240Z,2.61
2019-02-24T22:20:09.855Z,2.45
2019-02-24T22:22:38.140Z,2.26
2019-02-24T22:25:11.389Z,2.26
2019-02-24T22:27:39.652Z,2.26
2019-02-24T22:30:10.976Z,2.26
2019-02-24T22:32:39.342Z,2.24
2019-02-24T22:35:08.788Z,2.27
2019-02-24T22:37:37.075Z,2.23
2019-02-24T22:40:08.553Z,2.09
2019-02-24T22:42:36.819Z,2.16
2019-02-24T22:45:08.565Z,2.22
2019-02-24T22:47:36.907Z,2.24
2019-02-24T22:50:07.528Z,2.27
2019-02-24T22:52:35.797Z,2.20
2019-02-24T22:55:08.959Z,2.08
2019-02-24T22:57:37.239Z,1.99
2019-02-24T23:00:23.622Z,1.94
2019-02-24T23:02:52.261Z,1.86
2019-02-24T23:05:20.552Z,1.77
2019-02-24T23:07:49.877Z,1.77
2019-02-24T23:10:18.203Z,1.74
2019-02-24T23:12:46.482Z,1.63
2019-02-24T23:15:14.757Z,1.72
2019-02-24T23:17:43.016Z,1.88
2019-02-24T23:20:11.303Z,1.98
2019-02-24T23:22:39.593Z,1.87
2019-02-24T23:25:08.002Z,1.86
2019-02-24T23:27:36.276Z,1.74
2019-02-24T23:30:06.688Z,1.64
2019-02-24T23:32:34.968Z,1.68
2019-02-24T23:35:03.831Z,1.80
2019-02-24T23:37:32.108Z,1.76
2019-02-24T23:40:00.378Z,1.61
2019-02-24T23:42:28.699Z,1.63
2019-02-24T23:44:56.921Z,1.53
2019-02-24T23:47:25.202Z,1.62
2019-02-24T23:49:53.482Z,1.62
2019-02-24T23:52:21.763Z,1.57
2019-02-24T23:54:50.050Z,1.39
2019-02-24T23:57:18.307Z,1.41
2019-02-24T23:59:46.576Z,1.34
